Time;durP1;ratioP1;P1;durP2;ratioP2;P2;SDS_P1;SDS_P2;PMS_P1;PMS_P2;Temp;Humidity;BMP_temperature;BMP_pressure;BME280_temperature;BME280_humidity;BME280_pressure;Samples;Min_cycle;Max_cycle;Signal;HPM_P1;HPM_P2
2022/12/15 00:40:17;;;;;;;43.67;22.00;;;-6.30;99.90;;;;;;5051251;28;20059;-42
2022/12/15 00:42:42;;;;;;;47.20;20.75;;;-6.40;99.90;;;;;;5051299;28;20044;-42
2022/12/15 00:45:08;;;;;;;45.58;22.27;;;-6.40;99.90;;;;;;5051179;28;20029;-42
2022/12/15 00:47:35;;;;;;;50.00;23.17;;;-6.50;99.90;;;;;;5051294;28;20386;-43
2022/12/15 01:20:18;;;;;;;46.30;21.40;;;-5.60;99.90;;;;;;5050063;28;20561;-42
2022/12/15 01:22:49;;;;;;;39.63;20.58;;;-5.50;99.90;;;;;;5050364;28;20031;-42
2022/12/15 01:25:17;;;;;;;50.65;20.33;;;-5.50;99.90;;;;;;5050366;28;20456;-42
2022/12/15 01:27:42;;;;;;;37.30;18.35;;;-5.40;99.90;;;;;;5050502;28;20017;-41
2022/12/15 01:30:10;;;;;;;43.60;20.13;;;-5.40;99.90;;;;;;5049924;28;20028;-40
2022/12/15 01:32:36;;;;;;;37.03;19.77;;;-5.30;99.90;;;;;;5050231;28;20028;-42
2022/12/15 01:35:03;;;;;;;40.55;19.38;;;-5.30;99.90;;;;;;5050135;28;20499;-42
2022/12/15 01:37:29;;;;;;;43.20;18.30;;;-5.30;99.90;;;;;;5050480;28;20029;-39
2022/12/15 01:42:39;;;;;;;42.67;18.98;;;-5.30;99.90;;;;;;5050323;28;20123;-40
2022/12/15 01:45:22;;;;;;;42.20;20.10;;;-5.20;99.90;;;;;;5050153;28;20100;-41
2022/12/15 01:47:55;;;;;;;34.33;17.35;;;-5.20;99.90;;;;;;5050293;28;20021;-40
2022/12/15 01:50:22;;;;;;;34.83;17.08;;;-5.20;99.90;;;;;;5049670;28;20029;-40
2022/12/15 01:52:49;;;;;;;37.63;18.38;;;-5.20;99.90;;;;;;5050053;28;20099;-40
2022/12/15 01:55:17;;;;;;;32.78;17.35;;;-5.20;99.90;;;;;;5049988;28;20028;-40
2022/12/15 01:57:44;;;;;;;35.47;18.20;;;-5.20;99.90;;;;;;5050142;28;20119;-39
2022/12/15 02:00:11;;;;;;;36.17;17.85;;;-5.20;99.90;;;;;;5042226;28;20071;-39
2022/12/15 02:02:38;;;;;;;35.85;16.63;;;-5.20;99.90;;;;;;5048089;28;20107;-40
2022/12/15 02:05:04;;;;;;;35.35;17.80;;;-5.10;99.90;;;;;;5048287;28;20123;-39
2022/12/15 02:07:30;;;;;;;35.67;17.67;;;-5.10;99.90;;;;;;5049628;28;20021;-41
2022/12/15 02:10:00;;;;;;;35.92;16.83;;;-5.10;99.90;;;;;;5049073;28;20449;-41
2022/12/15 02:13:03;;;;;;;34.00;17.75;;;-5.10;99.90;;;;;;5047894;28;20029;-41
2022/12/15 02:16:00;;;;;;;39.90;17.15;;;-5.10;99.90;;;;;;5049294;28;20210;-42
2022/12/15 02:18:34;;;;;;;36.25;18.27;;;-5.10;99.90;;;;;;5048835;28;20091;-41
2022/12/15 02:21:06;;;;;;;36.50;16.80;;;-5.10;99.90;;;;;;5048826;28;20047;-43
2022/12/15 02:23:50;;;;;;;35.85;18.15;;;-5.00;99.90;;;;;;5048027;28;20017;-42
2022/12/15 02:26:33;;;;;;;35.38;16.17;;;-5.00;99.90;;;;;;5049369;28;20029;-50
2022/12/15 02:29:37;;;;;;;41.17;17.65;;;-5.00;99.90;;;;;;5049311;28;20033;-42
2022/12/15 02:32:08;;;;;;;33.75;18.38;;;-5.00;99.90;;;;;;5037917;28;20037;-42
2022/12/15 02:34:51;;;;;;;35.80;17.30;;;-5.00;99.90;;;;;;5049316;28;20512;-41
2022/12/15 02:37:25;;;;;;;41.22;17.88;;;-5.00;99.90;;;;;;5049325;28;20024;-42
2022/12/15 02:39:50;;;;;;;36.03;18.65;;;-5.10;99.90;;;;;;5048315;28;20037;-42
2022/12/15 02:42:15;;;;;;;36.90;18.35;;;-5.10;99.90;;;;;;5048854;28;20032;-41
2022/12/15 02:44:49;;;;;;;34.00;19.42;;;-5.10;99.90;;;;;;5048920;28;20025;-41
2022/12/15 02:47:36;;;;;;;38.88;17.77;;;-5.10;99.90;;;;;;5049170;28;20021;-41
2022/12/15 02:50:31;;;;;;;37.17;17.17;;;-5.10;99.90;;;;;;5048274;28;20104;-41
2022/12/15 02:53:21;;;;;;;35.88;17.88;;;-5.20;99.90;;;;;;5048575;28;20025;-41
2022/12/15 02:55:56;;;;;;;38.38;18.73;;;-5.10;99.90;;;;;;5048571;28;20064;-41
2022/12/15 02:59:15;;;;;;;36.08;18.77;;;-5.20;99.90;;;;;;5048943;28;20059;-41
2022/12/15 03:01:51;;;;;;;35.75;17.85;;;-5.10;99.90;;;;;;5043089;28;20067;-42
2022/12/15 03:04:17;;;;;;;36.03;18.95;;;-5.20;99.90;;;;;;5048533;28;20040;-44
2022/12/15 03:06:43;;;;;;;38.88;19.45;;;-5.20;99.90;;;;;;5039581;28;20029;-41
2022/12/15 03:09:09;;;;;;;39.40;19.15;;;-5.20;99.90;;;;;;5036547;28;20083;-42
2022/12/15 03:11:35;;;;;;;38.83;18.50;;;-5.20;99.90;;;;;;5037457;28;20037;-42
2022/12/15 03:14:01;;;;;;;35.40;18.15;;;-5.20;99.90;;;;;;5035597;28;20030;-41
2022/12/15 03:16:26;;;;;;;34.30;18.20;;;-5.20;99.90;;;;;;5026849;28;20100;-42
2022/12/15 03:18:52;;;;;;;38.45;18.73;;;-5.20;99.90;;;;;;5027449;28;20049;-42
2022/12/15 03:21:17;;;;;;;39.38;20.05;;;-5.20;99.90;;;;;;5028283;28;20033;-41
2022/12/15 03:23:43;;;;;;;36.05;18.85;;;-5.20;99.90;;;;;;5028716;28;20025;-41
2022/12/15 03:26:08;;;;;;;36.38;18.77;;;-5.20;99.90;;;;;;5028554;28;20405;-42
2022/12/15 03:28:34;;;;;;;40.90;18.75;;;-5.20;99.90;;;;;;5027486;28;20028;-43
2022/12/15 03:31:00;;;;;;;34.85;16.77;;;-5.20;99.90;;;;;;5032820;28;20041;-42
2022/12/15 03:33:25;;;;;;;31.33;16.35;;;-5.10;99.90;;;;;;5042768;28;20447;-42
2022/12/15 03:35:51;;;;;;;34.75;17.05;;;-5.10;99.90;;;;;;5048519;28;20029;-43
2022/12/15 03:38:17;;;;;;;33.90;16.95;;;-5.00;99.90;;;;;;5049001;28;20033;-44
2022/12/15 03:40:42;;;;;;;30.15;16.42;;;-5.00;99.90;;;;;;5046875;28;20049;-41
2022/12/15 03:43:08;;;;;;;29.92;15.85;;;-4.90;99.90;;;;;;5048776;28;20435;-41
2022/12/15 03:45:33;;;;;;;35.72;16.70;;;-4.90;99.90;;;;;;5044168;28;20017;-41
2022/12/15 03:47:59;;;;;;;34.47;16.77;;;-4.80;99.90;;;;;;5048676;28;20029;-42
2022/12/15 03:50:27;;;;;;;28.13;13.45;;;-4.80;99.90;;;;;;5048051;28;20063;-41
2022/12/15 03:52:55;;;;;;;28.15;14.18;;;-4.80;99.90;;;;;;5048481;28;20044;-42
2022/12/15 03:55:21;;;;;;;27.90;13.80;;;-4.70;99.90;;;;;;5048556;28;20398;-42
2022/12/15 03:57:46;;;;;;;28.73;14.95;;;-4.60;99.90;;;;;;5024644;28;20049;-41
2022/12/15 04:00:13;;;;;;;24.65;13.65;;;-4.60;99.90;;;;;;5015273;28;20080;-41
2022/12/15 04:02:39;;;;;;;26.73;15.38;;;-4.60;99.90;;;;;;5048170;28;20013;-41
2022/12/15 04:05:05;;;;;;;30.25;15.02;;;-4.50;99.90;;;;;;5048244;28;20051;-43
2022/12/15 04:07:31;;;;;;;26.58;13.90;;;-4.50;99.90;;;;;;5048227;28;20025;-41
2022/12/15 04:09:56;;;;;;;31.00;14.80;;;-4.50;99.90;;;;;;5047989;28;20033;-41
2022/12/15 04:12:22;;;;;;;30.48;14.85;;;-4.50;99.90;;;;;;5048468;28;20108;-40
2022/12/15 04:14:47;;;;;;;30.55;15.07;;;-4.50;99.90;;;;;;5048340;28;20051;-42
2022/12/15 04:17:13;;;;;;;29.00;14.80;;;-4.50;99.90;;;;;;5048064;28;20021;-41
2022/12/15 04:22:23;;;;;;;29.20;15.55;;;-4.50;99.90;;;;;;5047911;28;20075;-42
2022/12/15 05:33:14;;;;;;;28.17;15.48;;;-4.10;99.90;;;;;;5050763;28;20036;-42
2022/12/15 05:35:40;;;;;;;27.58;14.27;;;-4.10;99.90;;;;;;5050488;28;20033;-41
2022/12/15 05:38:05;;;;;;;28.20;14.80;;;-4.20;99.90;;;;;;5050534;28;20025;-42
2022/12/15 05:40:31;;;;;;;29.58;14.30;;;-4.20;99.90;;;;;;5049352;28;20033;-42
2022/12/15 05:42:58;;;;;;;31.33;15.57;;;-4.30;99.90;;;;;;5051564;28;20021;-42
2022/12/15 05:45:23;;;;;;;31.55;15.48;;;-4.30;99.90;;;;;;5051960;28;20023;-42
2022/12/15 05:47:51;;;;;;;31.85;15.38;;;-4.30;99.90;;;;;;5051813;28;20107;-42
2022/12/15 05:50:16;;;;;;;33.10;14.95;;;-4.40;99.90;;;;;;5051450;28;20476;-42
2022/12/15 05:52:42;;;;;;;30.23;14.02;;;-4.40;99.90;;;;;;5051817;28;20016;-42
2022/12/15 05:55:08;;;;;;;29.20;14.35;;;-4.40;99.90;;;;;;5051607;28;20025;-42
2022/12/15 05:57:33;;;;;;;37.30;17.23;;;-4.40;99.90;;;;;;5051677;28;20061;-43
2022/12/15 05:59:59;;;;;;;32.40;15.90;;;-4.40;99.90;;;;;;5049702;28;20031;-43
2022/12/15 06:02:24;;;;;;;33.50;14.95;;;-4.40;99.90;;;;;;5051518;28;20735;-43
2022/12/15 06:04:50;;;;;;;32.17;15.20;;;-4.40;99.90;;;;;;5051350;28;20033;-42
2022/12/15 06:07:15;;;;;;;30.52;15.02;;;-4.30;99.90;;;;;;5051480;28;20025;-43
2022/12/15 06:09:40;;;;;;;29.00;15.77;;;-4.40;99.90;;;;;;5050938;28;20028;-43
2022/12/15 06:12:06;;;;;;;35.60;15.13;;;-4.40;99.90;;;;;;5051389;28;20029;-42
2022/12/15 06:14:31;;;;;;;26.33;14.68;;;-4.40;99.90;;;;;;5051418;28;20120;-42
2022/12/15 06:16:58;;;;;;;27.65;14.88;;;-4.40;99.90;;;;;;5050705;28;20497;-42
2022/12/15 06:19:24;;;;;;;31.17;15.23;;;-4.40;99.90;;;;;;5040118;28;20028;-41
2022/12/15 06:21:49;;;;;;;29.10;14.50;;;-4.40;99.90;;;;;;5039764;28;20033;-41
2022/12/15 06:24:15;;;;;;;28.15;14.73;;;-4.50;99.90;;;;;;5040720;28;20454;-42
2022/12/15 06:26:40;;;;;;;33.88;15.75;;;-4.40;99.90;;;;;;5039644;28;20018;-43
2022/12/15 06:29:09;;;;;;;30.25;14.95;;;-4.50;99.90;;;;;;5039038;28;20079;-43
2022/12/15 06:31:36;;;;;;;33.65;14.55;;;-4.50;99.90;;;;;;5040664;28;20394;-43
2022/12/15 06:34:07;;;;;;;31.75;15.25;;;-4.40;99.90;;;;;;5039598;28;20021;-44
2022/12/15 06:36:33;;;;;;;31.83;15.60;;;-4.40;99.90;;;;;;5039700;28;20068;-42
2022/12/15 06:39:00;;;;;;;33.13;17.05;;;-4.50;99.90;;;;;;5039786;28;20017;-42
2022/12/15 06:41:26;;;;;;;31.58;16.23;;;-4.40;99.90;;;;;;5037993;28;20130;-42
2022/12/15 06:43:57;;;;;;;30.58;15.60;;;-4.40;99.90;;;;;;5039994;28;20013;-43
2022/12/15 06:46:23;;;;;;;;;;;-4.50;99.90;;;;;;5037848;28;20029;-43
2022/12/15 06:48:48;;;;;;;28.70;14.82;;;-4.40;99.90;;;;;;5042589;28;19991;-42
2022/12/15 06:51:15;;;;;;;27.33;14.88;;;-4.40;99.90;;;;;;5038358;28;20136;-44
2022/12/15 06:53:44;;;;;;;32.22;14.88;;;-4.40;99.90;;;;;;5042120;28;20016;-46
2022/12/15 06:56:27;;;;;;;31.85;14.90;;;-4.30;99.90;;;;;;5041977;28;20018;-42
2022/12/15 06:58:53;;;;;;;25.63;14.57;;;-4.30;99.90;;;;;;5048314;28;20025;-43
2022/12/15 07:01:21;;;;;;;26.63;13.57;;;-4.30;99.90;;;;;;5047991;28;20013;-42
2022/12/15 07:03:46;;;;;;;28.65;14.55;;;-4.20;99.90;;;;;;5048476;28;20104;-41
2022/12/15 07:06:14;;;;;;;30.25;15.00;;;-4.20;99.90;;;;;;5048782;28;20104;-43
2022/12/15 07:08:40;;;;;;;25.10;13.77;;;-4.20;99.90;;;;;;5047103;28;20035;-43
2022/12/15 07:11:08;;;;;;;31.25;15.27;;;-4.10;99.90;;;;;;5039621;28;20364;-42
2022/12/15 07:13:34;;;;;;;33.47;16.33;;;-4.20;99.90;;;;;;5037266;28;20026;-43
2022/12/15 07:16:00;;;;;;;30.02;15.38;;;-4.10;99.90;;;;;;5043033;28;20367;-42
2022/12/15 07:18:28;;;;;;;27.33;14.80;;;-4.10;99.90;;;;;;5038977;28;20486;-43
2022/12/15 07:20:54;;;;;;;30.17;14.55;;;-4.10;99.90;;;;;;5046582;28;20032;-41
2022/12/15 07:23:19;;;;;;;26.40;14.35;;;-4.10;99.90;;;;;;5047296;28;20079;-42
2022/12/15 07:25:45;;;;;;;28.48;14.10;;;-4.00;99.90;;;;;;5046419;28;20028;-41
2022/12/15 07:28:10;;;;;;;32.53;14.63;;;-4.00;99.90;;;;;;5046168;28;20032;-42
2022/12/15 07:30:36;;;;;;;26.55;14.35;;;-4.00;99.90;;;;;;5045370;28;20442;-42
2022/12/15 07:33:02;;;;;;;27.48;14.40;;;-3.90;99.90;;;;;;5045818;28;20041;-42
2022/12/15 07:35:28;;;;;;;25.45;13.07;;;-3.90;99.90;;;;;;5046787;28;20094;-41
2022/12/15 07:37:54;;;;;;;31.02;15.43;;;-3.90;99.90;;;;;;5045841;28;20081;-41
2022/12/15 07:40:19;;;;;;;28.05;14.55;;;-3.90;99.90;;;;;;5046841;28;20052;-40
2022/12/15 07:42:45;;;;;;;29.95;14.38;;;-3.90;99.90;;;;;;5048387;28;20033;-40
2022/12/15 07:45:10;;;;;;;31.25;15.20;;;-3.80;99.90;;;;;;5047232;28;20359;-41
2022/12/15 07:47:36;;;;;;;28.50;14.23;;;-3.90;99.90;;;;;;5048835;28;20032;-41
2022/12/15 07:50:03;;;;;;;33.53;15.77;;;-3.90;99.90;;;;;;5048091;28;20359;-41
2022/12/15 07:52:29;;;;;;;32.95;16.40;;;-3.80;99.90;;;;;;5048672;28;20489;-41
2022/12/15 07:54:55;;;;;;;34.47;16.23;;;-3.80;99.90;;;;;;5048058;28;20071;-40
2022/12/15 07:57:21;;;;;;;26.23;13.23;;;-3.80;99.90;;;;;;5048398;28;20037;-41
2022/12/15 07:59:46;;;;;;;28.92;15.23;;;-3.80;99.90;;;;;;5048742;28;20025;-42
2022/12/15 08:02:12;;;;;;;30.23;14.23;;;-3.80;99.90;;;;;;5051824;28;20035;-41
2022/12/15 08:04:38;;;;;;;28.73;15.02;;;-3.80;99.90;;;;;;5046991;28;20017;-42
2022/12/15 08:07:05;;;;;;;31.77;15.63;;;-3.70;99.90;;;;;;5041200;28;20072;-41
2022/12/15 08:09:30;;;;;;;27.90;14.05;;;-3.70;99.90;;;;;;5040053;28;20018;-41
2022/12/15 08:11:56;;;;;;;27.65;14.85;;;-3.70;99.90;;;;;;5041809;28;20086;-42
2022/12/15 08:14:22;;;;;;;35.22;15.93;;;-3.60;99.90;;;;;;5042256;28;20034;-41
2022/12/15 08:16:48;;;;;;;29.27;15.95;;;-3.60;99.90;;;;;;5039911;28;20052;-41
2022/12/15 08:19:15;;;;;;;31.90;14.70;;;-3.60;99.90;;;;;;5042289;28;20124;-41
2022/12/15 08:21:42;;;;;;;29.13;14.95;;;-3.50;99.90;;;;;;5041374;28;20021;-41
2022/12/15 08:24:09;;;;;;;28.17;14.52;;;-3.50;99.90;;;;;;5039541;28;20021;-41
2022/12/15 08:26:34;;;;;;;29.10;15.05;;;-3.40;99.90;;;;;;5050977;28;20497;-42
2022/12/15 08:29:02;;;;;;;27.00;14.77;;;-3.40;99.90;;;;;;5050706;28;20029;-42
2022/12/15 08:31:30;;;;;;;27.85;15.50;;;-3.30;99.90;;;;;;5050546;28;20020;-42
2022/12/15 08:33:56;;;;;;;28.10;14.88;;;-3.30;99.90;;;;;;5051057;28;20429;-42
2022/12/15 08:36:22;;;;;;;28.23;14.57;;;-3.30;99.90;;;;;;5052029;28;20021;-41
2022/12/15 08:38:47;;;;;;;25.13;14.13;;;-3.20;99.90;;;;;;5051573;28;20029;-42
2022/12/15 08:41:16;;;;;;;32.42;15.75;;;-3.20;99.90;;;;;;5049535;28;20032;-41
2022/12/15 08:43:42;;;;;;;31.27;14.85;;;-3.20;99.90;;;;;;5051487;28;20021;-47
2022/12/15 08:46:08;;;;;;;27.67;15.55;;;-3.20;99.90;;;;;;5051513;28;20100;-41
2022/12/15 08:48:34;;;;;;;30.42;14.65;;;-3.10;99.90;;;;;;5051577;28;20120;-42
2022/12/15 08:51:00;;;;;;;28.88;15.57;;;-3.00;99.90;;;;;;5051091;28;20425;-41
2022/12/15 08:53:26;;;;;;;27.88;14.57;;;-2.90;99.90;;;;;;5051147;28;20024;-41
2022/12/15 08:55:52;;;;;;;26.05;14.57;;;-2.90;99.90;;;;;;5050831;28;20281;-42
2022/12/15 08:58:18;;;;;;;30.60;15.48;;;-2.80;99.90;;;;;;5051253;28;20498;-42
2022/12/15 09:00:43;;;;;;;30.25;15.32;;;-2.80;99.90;;;;;;5050878;28;20092;-41
2022/12/15 09:03:09;;;;;;;29.65;15.68;;;-2.70;99.90;;;;;;5050011;28;20025;-41
2022/12/15 09:05:35;;;;;;;29.58;16.35;;;-2.60;99.90;;;;;;5051041;28;20082;-41
2022/12/15 09:08:01;;;;;;;27.58;14.68;;;-2.60;99.90;;;;;;5051124;28;20389;-41
2022/12/15 09:10:27;;;;;;;27.90;15.07;;;-2.50;99.90;;;;;;5048568;28;20033;-41
2022/12/15 09:12:52;;;;;;;32.08;16.58;;;-2.40;99.90;;;;;;5050199;28;20033;-41
2022/12/15 09:15:18;;;;;;;28.30;14.70;;;-2.40;99.90;;;;;;5050953;28;20033;-41
2022/12/15 09:17:44;;;;;;;27.48;15.57;;;-2.40;99.90;;;;;;5051230;28;20025;-41
2022/12/15 09:20:10;;;;;;;32.08;15.10;;;-2.30;99.90;;;;;;5050676;28;20548;-42
2022/12/15 09:22:35;;;;;;;27.38;15.50;;;-2.30;99.90;;;;;;5050884;28;20033;-42
2022/12/15 09:25:02;;;;;;;28.80;14.20;;;-2.20;99.90;;;;;;5050620;28;20043;-43
2022/12/15 09:27:29;;;;;;;34.42;14.68;;;-2.20;99.90;;;;;;5051418;28;20048;-42
2022/12/15 09:29:55;;;;;;;28.00;15.05;;;-2.10;99.90;;;;;;5050049;28;20522;-42
2022/12/15 09:32:21;;;;;;;33.13;17.08;;;-2.00;99.90;;;;;;5050414;28;20036;-41
2022/12/15 09:34:46;;;;;;;29.63;14.50;;;-2.00;99.90;;;;;;5050554;28;20466;-43
2022/12/15 09:37:12;;;;;;;27.13;15.82;;;-1.90;99.90;;;;;;5050604;28;20033;-42
2022/12/15 09:39:38;;;;;;;33.35;16.08;;;-1.80;99.90;;;;;;5050178;28;20507;-42
2022/12/15 09:42:03;;;;;;;26.73;14.35;;;-1.80;99.90;;;;;;5050528;28;20475;-41
2022/12/15 09:44:31;;;;;;;31.73;16.60;;;-1.70;99.90;;;;;;5050440;28;20021;-41
2022/12/15 09:47:14;;;;;;;28.13;15.23;;;-1.60;99.90;;;;;;5050848;28;20017;-42
2022/12/15 09:49:56;;;;;;;28.92;14.90;;;-1.60;99.90;;;;;;5049972;28;20029;-41
2022/12/15 09:52:26;;;;;;;31.33;15.82;;;-1.50;99.90;;;;;;5050390;28;20154;-41
2022/12/15 09:54:53;;;;;;;30.48;16.50;;;-1.50;99.90;;;;;;5050457;28;20489;-42
2022/12/15 09:57:43;;;;;;;30.50;15.35;;;-1.40;99.90;;;;;;5050063;28;20037;-41
2022/12/15 10:00:37;;;;;;;35.63;15.80;;;-1.30;99.90;;;;;;5050054;28;20102;-42
2022/12/15 10:03:27;;;;;;;31.88;16.33;;;-1.20;99.90;;;;;;5050159;28;20025;-42
2022/12/15 10:06:07;;;;;;;28.92;15.60;;;-1.20;99.90;;;;;;5050605;28;20025;-42
2022/12/15 10:09:01;;;;;;;26.67;15.00;;;-1.20;99.90;;;;;;5050283;28;20059;-42
2022/12/15 10:11:37;;;;;;;26.30;15.27;;;-1.00;99.90;;;;;;5048409;28;20037;-41
2022/12/15 10:14:18;;;;;;;32.65;15.15;;;-1.00;99.90;;;;;;5050204;28;20052;-43
2022/12/15 10:17:03;;;;;;;30.13;15.85;;;-0.90;99.90;;;;;;5049983;28;20099;-42
2022/12/15 10:19:42;;;;;;;28.75;15.23;;;-0.90;99.90;;;;;;5047854;28;20035;-42
2022/12/15 10:22:12;;;;;;;31.60;16.55;;;-0.80;99.90;;;;;;5049305;28;20521;-42
2022/12/15 10:24:38;;;;;;;29.05;16.08;;;-0.70;99.90;;;;;;5049912;28;20033;-42
2022/12/15 10:27:19;;;;;;;26.77;15.20;;;-0.70;99.90;;;;;;5049806;28;20025;-42
2022/12/15 10:29:59;;;;;;;30.95;15.68;;;-0.60;99.90;;;;;;5049362;28;20418;-43
2022/12/15 10:32:49;;;;;;;30.73;15.85;;;-0.50;99.90;;;;;;5049556;28;20096;-42
2022/12/15 10:35:21;;;;;;;27.05;14.60;;;-0.30;99.90;;;;;;5049496;28;20375;-42
2022/12/15 10:37:47;;;;;;;35.05;16.05;;;-0.20;99.90;;;;;;5048164;28;20232;-42
2022/12/15 10:40:43;;;;;;;31.15;15.02;;;0.00;99.90;;;;;;5049245;28;20033;-43
2022/12/15 10:43:34;;;;;;;23.85;13.38;;;1.20;99.90;;;;;;5047183;28;20017;-42
2022/12/15 10:46:02;;;;;;;21.10;13.23;;;3.50;99.90;;;;;;5045619;28;20028;-42
2022/12/15 10:48:28;;;;;;;26.80;13.75;;;5.20;99.60;;;;;;5046373;28;20461;-43
2022/12/15 10:51:12;;;;;;;22.42;13.05;;;6.70;94.70;;;;;;5046412;28;20033;-43
2022/12/15 10:53:43;;;;;;;22.55;12.80;;;7.90;91.50;;;;;;5047143;28;20025;-43
2022/12/15 10:56:21;;;;;;;20.80;12.90;;;8.20;91.50;;;;;;5046959;28;20061;-42
2022/12/15 10:58:52;;;;;;;21.63;12.82;;;9.60;84.20;;;;;;5045978;28;20025;-43
2022/12/15 11:01:22;;;;;;;18.27;12.05;;;10.10;82.90;;;;;;5046107;28;20043;-41
2022/12/15 11:03:51;;;;;;;20.70;12.13;;;10.00;77.10;;;;;;5047207;28;20041;-44
2022/12/15 11:06:26;;;;;;;18.23;12.50;;;10.10;77.20;;;;;;5034324;28;20465;-47
2022/12/15 11:08:56;;;;;;;18.25;11.95;;;10.20;78.80;;;;;;5045513;28;20048;-40
2022/12/15 11:14:14;;;;;;;;;;;8.50;78.80;;;;;;5044696;28;20050;-42
2022/12/15 11:16:54;;;;;;;19.50;12.60;;;7.50;82.80;;;;;;5044501;28;20255;-43
2022/12/15 11:19:49;;;;;;;18.55;12.05;;;6.30;86.60;;;;;;5045208;28;20506;-42
2022/12/15 11:22:36;;;;;;;24.45;13.57;;;5.30;90.40;;;;;;5042878;28;20375;-41
2022/12/15 11:25:22;;;;;;;22.02;15.40;;;4.30;92.60;;;;;;5037047;28;20018;-42
2022/12/15 11:27:50;;;;;;;20.50;13.18;;;3.70;94.20;;;;;;5046030;28;20029;-42
2022/12/15 11:30:19;;;;;;;20.15;13.38;;;3.20;96.20;;;;;;5043376;28;20041;-42
2022/12/15 11:32:49;;;;;;;22.10;13.55;;;3.00;97.50;;;;;;5044664;28;20071;-41
2022/12/15 11:35:19;;;;;;;23.60;13.25;;;2.60;98.40;;;;;;5044415;28;20079;-43
2022/12/15 11:37:48;;;;;;;;;;;2.30;99.90;;;;;;5045575;28;20032;-41
2022/12/15 11:40:37;;;;;;;26.58;14.52;;;2.10;99.90;;;;;;5044127;28;20387;-42
2022/12/15 11:43:14;;;;;;;28.85;13.77;;;1.90;99.90;;;;;;5044766;28;20028;-42
2022/12/15 11:46:00;;;;;;;24.70;14.15;;;1.90;99.90;;;;;;5044118;28;20027;-41
2022/12/15 11:48:36;;;;;;;22.20;13.77;;;1.80;99.90;;;;;;5045859;28;20028;-41
2022/12/15 11:51:35;;;;;;;38.00;20.65;;;1.80;99.90;;;;;;5044986;28;20055;-42
2022/12/15 11:54:23;;;;;;;34.10;18.40;;;1.80;99.90;;;;;;5044454;28;20041;-41
2022/12/15 11:57:04;;;;;;;27.58;14.70;;;1.70;99.90;;;;;;5046030;28;20044;-42
2022/12/15 11:59:58;;;;;;;25.90;14.80;;;1.70;99.90;;;;;;5040796;28;20045;-42
2022/12/15 12:03:09;;;;;;;24.15;13.60;;;1.70;99.90;;;;;;5037413;28;20691;-41
2022/12/15 12:05:40;;;;;;;14.60;9.20;;;1.70;99.90;;;;;;5038988;28;20018;-41
2022/12/15 12:08:37;;;;;;;29.38;13.63;;;1.60;99.90;;;;;;5037704;28;20390;-43
2022/12/15 12:11:15;;;;;;;24.15;12.68;;;1.60;99.90;;;;;;5035961;28;20036;-43
2022/12/15 12:14:02;;;;;;;27.02;13.75;;;1.60;99.90;;;;;;5033174;28;20024;-42
2022/12/15 12:16:38;;;;;;;22.92;12.90;;;1.60;99.90;;;;;;5036962;28;20718;-42
2022/12/15 12:19:15;;;;;;;27.17;13.88;;;1.50;99.90;;;;;;5044125;28;20052;-42
2022/12/15 12:21:46;;;;;;;28.98;14.23;;;1.60;99.90;;;;;;5045712;28;20167;-41
2022/12/15 12:24:18;;;;;;;20.27;12.35;;;1.50;99.90;;;;;;5045204;28;20050;-41
2022/12/15 12:26:53;;;;;;;25.73;14.52;;;1.50;99.90;;;;;;5045775;28;20116;-42
2022/12/15 12:29:27;;;;;;;24.73;13.35;;;1.50;99.90;;;;;;5045701;28;20029;-42
2022/12/15 12:31:52;;;;;;;24.20;12.50;;;1.40;99.90;;;;;;5045937;28;20036;-42
2022/12/15 12:34:46;;;;;;;26.95;13.05;;;1.40;99.90;;;;;;5046409;28;20036;-42
2022/12/15 12:37:26;;;;;;;24.55;12.63;;;1.40;99.90;;;;;;5042250;28;20405;-42
2022/12/15 12:39:56;;;;;;;26.95;12.32;;;1.50;99.90;;;;;;5044395;28;20037;-42
2022/12/15 12:42:38;;;;;;;25.30;12.65;;;1.50;99.90;;;;;;5045754;28;20029;-42
2022/12/15 12:45:04;;;;;;;27.63;13.25;;;1.50;99.90;;;;;;5045533;28;20108;-42
2022/12/15 12:47:35;;;;;;;23.95;12.88;;;1.50;99.90;;;;;;5048670;28;20479;-42
2022/12/15 12:50:05;;;;;;;27.65;13.57;;;1.50;99.90;;;;;;5047516;28;20021;-42
2022/12/15 12:52:35;;;;;;;26.02;13.85;;;1.50;99.90;;;;;;5042895;28;20021;-44
2022/12/15 12:55:19;;;;;;;22.80;13.40;;;1.50;99.90;;;;;;5048615;28;20029;-42
2022/12/15 12:57:46;;;;;;;27.08;13.35;;;1.50;99.90;;;;;;5047443;28;20035;-45
2022/12/15 13:00:17;;;;;;;26.92;13.80;;;1.50;99.90;;;;;;5047923;28;20058;-49
2022/12/15 13:02:47;;;;;;;25.55;13.30;;;1.50;99.90;;;;;;5047476;28;20779;-42
2022/12/15 13:05:30;;;;;;;30.88;14.20;;;1.50;99.90;;;;;;5048654;28;20115;-42
2022/12/15 13:08:04;;;;;;;24.92;13.27;;;1.60;99.90;;;;;;5045367;28;20068;-44
2022/12/15 13:10:36;;;;;;;26.83;13.55;;;1.50;99.90;;;;;;5039870;28;20033;-42
2022/12/15 13:13:26;;;;;;;27.02;13.15;;;1.60;99.90;;;;;;5046813;28;20139;-42
2022/12/15 13:15:57;;;;;;;23.65;13.07;;;1.50;99.90;;;;;;5048636;28;20017;-42
2022/12/15 13:18:26;;;;;;;25.77;13.18;;;1.50;99.90;;;;;;5048416;28;20033;-42
2022/12/15 13:20:56;;;;;;;24.23;12.30;;;1.50;99.90;;;;;;5048394;28;20452;-42
2022/12/15 13:23:24;;;;;;;22.33;12.40;;;1.50;99.90;;;;;;5048098;28;20029;-45
2022/12/15 13:25:59;;;;;;;22.55;11.90;;;1.50;99.90;;;;;;5040284;28;20022;-42
2022/12/15 13:28:41;;;;;;;29.75;13.65;;;1.40;99.90;;;;;;5042952;28;20021;-42
2022/12/15 13:31:22;;;;;;;23.85;12.50;;;1.40;99.90;;;;;;5040201;28;20551;-42
2022/12/15 13:33:48;;;;;;;24.73;12.45;;;1.30;99.90;;;;;;5043835;28;20029;-42
2022/12/15 13:36:37;;;;;;;23.10;12.85;;;1.30;99.90;;;;;;5048062;28;20025;-42
2022/12/15 13:39:11;;;;;;;25.90;13.52;;;1.30;99.90;;;;;;5042974;28;20041;-43
2022/12/15 13:42:00;;;;;;;22.77;12.68;;;1.30;99.90;;;;;;5046162;28;20024;-44
2022/12/15 13:44:50;;;;;;;29.40;13.27;;;1.30;99.90;;;;;;5039162;28;20025;-42
2022/12/15 13:47:21;;;;;;;23.30;12.25;;;1.20;99.90;;;;;;5045580;28;20056;-42
2022/12/15 13:50:28;;;;;;;21.27;12.10;;;1.20;99.90;;;;;;5049351;28;20078;-43
2022/12/15 13:52:55;;;;;;;26.77;13.75;;;1.20;99.90;;;;;;5049696;28;20029;-43
2022/12/15 13:55:23;;;;;;;24.58;11.43;;;1.20;99.90;;;;;;5044195;28;20091;-42
2022/12/15 13:58:14;;;;;;;31.05;13.57;;;1.30;99.90;;;;;;5038323;28;20482;-46
2022/12/15 14:00:50;;;;;;;25.33;13.25;;;1.20;99.90;;;;;;5033848;28;20132;-42
2022/12/15 14:03:16;;;;;;;18.92;10.65;;;1.30;99.90;;;;;;5039052;28;20010;-42
2022/12/15 14:05:52;;;;;;;24.08;11.05;;;1.30;99.90;;;;;;5039470;28;20436;-42
2022/12/15 14:08:19;;;;;;;24.35;12.90;;;1.20;99.90;;;;;;5039502;28;20294;-42
2022/12/15 14:10:53;;;;;;;23.02;11.23;;;1.30;99.90;;;;;;5040957;28;20490;-42
2022/12/15 14:13:28;;;;;;;25.30;12.25;;;1.30;99.90;;;;;;5035008;28;20367;-43
2022/12/15 14:15:55;;;;;;;25.10;11.85;;;1.30;99.90;;;;;;5035798;28;20437;-42
2022/12/15 14:18:32;;;;;;;19.50;10.15;;;1.20;99.90;;;;;;5039931;28;20025;-42
2022/12/15 14:20:59;;;;;;;19.75;11.32;;;1.20;99.90;;;;;;5039903;28;20024;-43
2022/12/15 14:23:28;;;;;;;22.60;12.50;;;1.10;99.90;;;;;;5040316;28;20088;-41
2022/12/15 14:26:02;;;;;;;23.05;11.18;;;1.10;99.90;;;;;;5039006;28;20013;-42
2022/12/15 14:28:30;;;;;;;21.20;11.52;;;1.10;99.90;;;;;;5040199;28;20026;-41
2022/12/15 14:30:58;;;;;;;20.52;11.18;;;1.00;99.90;;;;;;5038396;28;20104;-42
2022/12/15 14:33:24;;;;;;;21.27;10.60;;;1.00;99.90;;;;;;5038916;28;20020;-40
2022/12/15 14:35:54;;;;;;;16.48;10.07;;;0.90;99.90;;;;;;5040699;28;20437;-42
2022/12/15 14:38:27;;;;;;;19.60;11.13;;;0.90;99.90;;;;;;5039135;28;20403;-42
2022/12/15 14:40:56;;;;;;;20.77;10.60;;;0.80;99.90;;;;;;5039932;28;20784;-42
2022/12/15 14:43:28;;;;;;;20.48;11.18;;;0.80;99.90;;;;;;5041574;28;20104;-42
2022/12/15 14:46:03;;;;;;;21.10;11.15;;;0.80;99.90;;;;;;5038095;28;20022;-42
2022/12/15 14:48:33;;;;;;;20.35;10.48;;;0.70;99.90;;;;;;5037768;28;20053;-41
2022/12/15 14:51:01;;;;;;;19.33;10.25;;;0.60;99.90;;;;;;5038863;28;20021;-41
2022/12/15 14:53:35;;;;;;;19.35;10.25;;;0.50;99.90;;;;;;5039475;28;20041;-42
2022/12/15 14:56:18;;;;;;;17.95;9.70;;;0.40;99.90;;;;;;5038536;28;20041;-41
2022/12/15 14:58:46;;;;;;;21.27;11.27;;;0.30;99.90;;;;;;5036753;28;20021;-42
2022/12/15 15:01:33;;;;;;;18.02;9.40;;;0.20;99.90;;;;;;5040519;28;20176;-42
2022/12/15 15:04:04;;;;;;;20.42;9.82;;;0.10;99.90;;;;;;5048516;28;20475;-41
2022/12/15 15:06:34;;;;;;;20.42;10.18;;;0.00;99.90;;;;;;5048858;28;20087;-42
2022/12/15 15:09:21;;;;;;;20.70;10.85;;;-0.20;99.90;;;;;;5048579;28;20075;-41
2022/12/15 15:11:49;;;;;;;19.50;10.45;;;-0.30;99.90;;;;;;5044981;28;20078;-42
2022/12/15 15:14:40;;;;;;;18.92;10.32;;;-0.40;99.90;;;;;;5007828;28;20021;-41
2022/12/15 15:17:19;;;;;;;22.60;10.85;;;-0.50;99.90;;;;;;5024231;28;20048;-42
2022/12/15 15:19:49;;;;;;;33.38;15.60;;;-0.50;99.90;;;;;;5028293;28;20044;-42